Marble Falls, Texas
Current Conditions -  °F | °C
As of 1:35 AM on Monday 22 Dec 2014 (Local Time) from KDZB Reporting Station
Broken Clouds Broken Clouds  
Wind Chill: 55°   Ceiling: 1400
Heat Index: 55°   Visibility: 10mi
Dew Point: 50°   Wind: 0mph
Humidity: 82%   Direction: NA
Pressure: 29.77"   Gusts: NA
Location:  30.58°N, 98.27°W
Report Text: KDZB 220735Z AUTO 00000KT 10SM BKN014 13/10 A2977 RMK AO2 T01300100
Loading
Personal Weather Stations






























Interactive Weather Map New forecast layout! Learn more

10-Day Weather Forecast

Advertisements
Track Severe Weather on mobile